sensor_id;sensor_type;location;lat;lon;timestamp;P1;durP1;ratioP1;P2;durP2;ratioP2
48651;SDS011;34442;52.362;-1.302;2022-12-07T00:01:34;4.80;;;2.22;;
48651;SDS011;34442;52.362;-1.302;2022-12-07T00:04:17;5.55;;;2.60;;
48651;SDS011;34442;52.362;-1.302;2022-12-07T00:07:03;4.25;;;2.50;;
48651;SDS011;34442;52.362;-1.302;2022-12-07T00:09:49;6.97;;;2.72;;
48651;SDS011;34442;52.362;-1.302;2022-12-07T00:12:35;5.57;;;2.70;;
48651;SDS011;34442;52.362;-1.302;2022-12-07T00:15:21;5.50;;;2.75;;
48651;SDS011;34442;52.362;-1.302;2022-12-07T00:18:07;5.00;;;2.45;;
48651;SDS011;34442;52.362;-1.302;2022-12-07T00:20:52;4.32;;;2.50;;
48651;SDS011;34442;52.362;-1.302;2022-12-07T00:23:38;5.30;;;2.53;;
48651;SDS011;34442;52.362;-1.302;2022-12-07T00:26:27;6.07;;;2.35;;
48651;SDS011;34442;52.362;-1.302;2022-12-07T00:29:18;5.03;;;2.45;;
48651;SDS011;34442;52.362;-1.302;2022-12-07T00:32:05;4.30;;;2.25;;
48651;SDS011;34442;52.362;-1.302;2022-12-07T00:34:50;3.63;;;1.90;;
48651;SDS011;34442;52.362;-1.302;2022-12-07T00:37:36;4.32;;;2.22;;
48651;SDS011;34442;52.362;-1.302;2022-12-07T00:40:22;3.78;;;2.10;;
48651;SDS011;34442;52.362;-1.302;2022-12-07T00:43:07;5.47;;;2.90;;
48651;SDS011;34442;52.362;-1.302;2022-12-07T00:45:53;4.40;;;2.17;;
48651;SDS011;34442;52.362;-1.302;2022-12-07T00:48:39;4.68;;;2.28;;
48651;SDS011;34442;52.362;-1.302;2022-12-07T00:51:26;4.90;;;2.63;;
48651;SDS011;34442;52.362;-1.302;2022-12-07T00:54:12;7.35;;;3.80;;
48651;SDS011;34442;52.362;-1.302;2022-12-07T00:56:58;5.05;;;2.63;;
48651;SDS011;34442;52.362;-1.302;2022-12-07T00:59:44;5.70;;;2.55;;
48651;SDS011;34442;52.362;-1.302;2022-12-07T01:02:29;5.00;;;2.97;;
48651;SDS011;34442;52.362;-1.302;2022-12-07T01:05:15;6.55;;;2.92;;
48651;SDS011;34442;52.362;-1.302;2022-12-07T01:08:03;4.63;;;2.28;;
48651;SDS011;34442;52.362;-1.302;2022-12-07T01:13:46;4.78;;;2.42;;
48651;SDS011;34442;52.362;-1.302;2022-12-07T01:16:32;4.13;;;2.58;;
48651;SDS011;34442;52.362;-1.302;2022-12-07T01:19:18;4.78;;;2.00;;
48651;SDS011;34442;52.362;-1.302;2022-12-07T01:22:04;4.10;;;2.10;;
48651;SDS011;34442;52.362;-1.302;2022-12-07T01:24:50;5.40;;;2.63;;
48651;SDS011;34442;52.362;-1.302;2022-12-07T01:27:36;4.97;;;2.38;;
48651;SDS011;34442;52.362;-1.302;2022-12-07T01:30:21;4.30;;;2.28;;
48651;SDS011;34442;52.362;-1.302;2022-12-07T01:33:07;5.03;;;2.40;;
48651;SDS011;34442;52.362;-1.302;2022-12-07T01:35:53;4.97;;;2.30;;
48651;SDS011;34442;52.362;-1.302;2022-12-07T01:38:39;6.45;;;2.63;;
48651;SDS011;34442;52.362;-1.302;2022-12-07T01:41:26;4.82;;;2.55;;
48651;SDS011;34442;52.362;-1.302;2022-12-07T01:44:20;5.60;;;2.70;;
48651;SDS011;34442;52.362;-1.302;2022-12-07T01:47:06;5.55;;;2.00;;
48651;SDS011;34442;52.362;-1.302;2022-12-07T01:49:52;4.47;;;2.05;;
48651;SDS011;34442;52.362;-1.302;2022-12-07T01:52:38;3.70;;;1.83;;
48651;SDS011;34442;52.362;-1.302;2022-12-07T01:55:25;4.55;;;2.13;;
48651;SDS011;34442;52.362;-1.302;2022-12-07T01:58:11;3.03;;;1.50;;
48651;SDS011;34442;52.362;-1.302;2022-12-07T02:01:01;3.83;;;2.00;;
48651;SDS011;34442;52.362;-1.302;2022-12-07T02:03:47;3.90;;;2.20;;
48651;SDS011;34442;52.362;-1.302;2022-12-07T02:06:34;4.63;;;1.92;;
48651;SDS011;34442;52.362;-1.302;2022-12-07T02:09:21;4.72;;;2.10;;
48651;SDS011;34442;52.362;-1.302;2022-12-07T02:12:06;2.90;;;1.80;;
48651;SDS011;34442;52.362;-1.302;2022-12-07T02:14:52;4.45;;;2.20;;
48651;SDS011;34442;52.362;-1.302;2022-12-07T02:17:42;3.90;;;1.85;;
48651;SDS011;34442;52.362;-1.302;2022-12-07T02:20:36;3.58;;;2.05;;
48651;SDS011;34442;52.362;-1.302;2022-12-07T02:29:44;4.05;;;2.03;;
48651;SDS011;34442;52.362;-1.302;2022-12-07T02:38:48;4.38;;;2.55;;
48651;SDS011;34442;52.362;-1.302;2022-12-07T02:41:44;4.03;;;2.42;;
48651;SDS011;34442;52.362;-1.302;2022-12-07T02:44:36;3.80;;;2.15;;
48651;SDS011;34442;52.362;-1.302;2022-12-07T02:47:22;3.97;;;2.40;;
48651;SDS011;34442;52.362;-1.302;2022-12-07T02:50:10;2.55;;;1.55;;
48651;SDS011;34442;52.362;-1.302;2022-12-07T02:52:57;3.42;;;2.03;;
48651;SDS011;34442;52.362;-1.302;2022-12-07T02:55:42;4.13;;;1.70;;
48651;SDS011;34442;52.362;-1.302;2022-12-07T02:58:34;3.58;;;1.80;;
48651;SDS011;34442;52.362;-1.302;2022-12-07T03:01:28;4.50;;;1.73;;
48651;SDS011;34442;52.362;-1.302;2022-12-07T03:04:46;4.03;;;1.95;;
48651;SDS011;34442;52.362;-1.302;2022-12-07T03:07:59;4.28;;;2.33;;
48651;SDS011;34442;52.362;-1.302;2022-12-07T03:10:56;3.50;;;1.90;;
48651;SDS011;34442;52.362;-1.302;2022-12-07T03:13:50;3.58;;;2.00;;
48651;SDS011;34442;52.362;-1.302;2022-12-07T03:19:46;3.30;;;1.88;;
48651;SDS011;34442;52.362;-1.302;2022-12-07T03:22:35;3.45;;;1.80;;
48651;SDS011;34442;52.362;-1.302;2022-12-07T03:25:25;4.43;;;2.10;;
48651;SDS011;34442;52.362;-1.302;2022-12-07T03:28:13;3.40;;;1.90;;
48651;SDS011;34442;52.362;-1.302;2022-12-07T03:31:11;4.15;;;2.13;;
48651;SDS011;34442;52.362;-1.302;2022-12-07T03:37:07;4.75;;;2.58;;
48651;SDS011;34442;52.362;-1.302;2022-12-07T03:43:34;5.13;;;2.20;;
48651;SDS011;34442;52.362;-1.302;2022-12-07T03:52:12;3.67;;;1.90;;
48651;SDS011;34442;52.362;-1.302;2022-12-07T03:57:47;4.65;;;2.10;;
48651;SDS011;34442;52.362;-1.302;2022-12-07T04:00:36;4.63;;;2.10;;
48651;SDS011;34442;52.362;-1.302;2022-12-07T04:03:23;5.85;;;2.03;;
48651;SDS011;34442;52.362;-1.302;2022-12-07T04:06:08;4.50;;;2.20;;
48651;SDS011;34442;52.362;-1.302;2022-12-07T04:08:54;3.17;;;1.83;;
48651;SDS011;34442;52.362;-1.302;2022-12-07T04:11:40;3.95;;;2.00;;
48651;SDS011;34442;52.362;-1.302;2022-12-07T04:14:26;5.60;;;2.42;;
48651;SDS011;34442;52.362;-1.302;2022-12-07T04:17:11;3.38;;;1.70;;
48651;SDS011;34442;52.362;-1.302;2022-12-07T04:19:57;3.20;;;1.90;;
48651;SDS011;34442;52.362;-1.302;2022-12-07T04:22:43;3.63;;;1.83;;
48651;SDS011;34442;52.362;-1.302;2022-12-07T04:25:29;4.90;;;2.30;;
48651;SDS011;34442;52.362;-1.302;2022-12-07T04:28:14;4.32;;;2.03;;
48651;SDS011;34442;52.362;-1.302;2022-12-07T04:31:00;4.68;;;2.03;;
48651;SDS011;34442;52.362;-1.302;2022-12-07T04:33:46;4.60;;;2.28;;
48651;SDS011;34442;52.362;-1.302;2022-12-07T04:36:32;4.13;;;2.10;;
48651;SDS011;34442;52.362;-1.302;2022-12-07T04:39:22;6.15;;;2.60;;
48651;SDS011;34442;52.362;-1.302;2022-12-07T04:42:17;3.60;;;1.90;;
48651;SDS011;34442;52.362;-1.302;2022-12-07T04:45:03;4.10;;;1.90;;
48651;SDS011;34442;52.362;-1.302;2022-12-07T04:47:49;5.18;;;2.10;;
48651;SDS011;34442;52.362;-1.302;2022-12-07T04:50:35;4.20;;;2.30;;
48651;SDS011;34442;52.362;-1.302;2022-12-07T04:53:23;4.68;;;2.10;;
48651;SDS011;34442;52.362;-1.302;2022-12-07T04:56:09;4.28;;;1.98;;
48651;SDS011;34442;52.362;-1.302;2022-12-07T04:58:55;5.10;;;2.45;;
48651;SDS011;34442;52.362;-1.302;2022-12-07T05:01:41;3.80;;;1.98;;
48651;SDS011;34442;52.362;-1.302;2022-12-07T05:04:26;7.30;;;2.40;;
48651;SDS011;34442;52.362;-1.302;2022-12-07T05:07:12;5.20;;;1.90;;
48651;SDS011;34442;52.362;-1.302;2022-12-07T05:09:58;3.83;;;2.05;;
48651;SDS011;34442;52.362;-1.302;2022-12-07T05:12:43;5.20;;;2.40;;
48651;SDS011;34442;52.362;-1.302;2022-12-07T05:15:30;4.72;;;2.10;;
48651;SDS011;34442;52.362;-1.302;2022-12-07T05:18:15;5.70;;;2.60;;
48651;SDS011;34442;52.362;-1.302;2022-12-07T05:21:01;4.90;;;2.38;;
48651;SDS011;34442;52.362;-1.302;2022-12-07T05:23:47;5.28;;;2.20;;
48651;SDS011;34442;52.362;-1.302;2022-12-07T05:26:33;4.95;;;2.80;;
48651;SDS011;34442;52.362;-1.302;2022-12-07T05:29:19;4.50;;;2.22;;
48651;SDS011;34442;52.362;-1.302;2022-12-07T05:32:05;3.88;;;2.10;;
48651;SDS011;34442;52.362;-1.302;2022-12-07T05:34:50;5.07;;;2.15;;
48651;SDS011;34442;52.362;-1.302;2022-12-07T05:37:36;3.83;;;2.08;;
48651;SDS011;34442;52.362;-1.302;2022-12-07T05:40:22;4.30;;;2.63;;
48651;SDS011;34442;52.362;-1.302;2022-12-07T05:43:07;4.00;;;2.33;;
48651;SDS011;34442;52.362;-1.302;2022-12-07T05:45:53;3.70;;;1.95;;
48651;SDS011;34442;52.362;-1.302;2022-12-07T05:48:39;6.53;;;2.45;;
48651;SDS011;34442;52.362;-1.302;2022-12-07T05:51:25;4.10;;;2.00;;
48651;SDS011;34442;52.362;-1.302;2022-12-07T05:54:11;3.60;;;1.98;;
48651;SDS011;34442;52.362;-1.302;2022-12-07T05:56:57;4.03;;;2.13;;
48651;SDS011;34442;52.362;-1.302;2022-12-07T05:59:42;4.13;;;2.15;;
48651;SDS011;34442;52.362;-1.302;2022-12-07T06:02:28;4.20;;;2.03;;
48651;SDS011;34442;52.362;-1.302;2022-12-07T06:05:14;4.15;;;2.22;;
48651;SDS011;34442;52.362;-1.302;2022-12-07T06:08:00;4.20;;;2.13;;
48651;SDS011;34442;52.362;-1.302;2022-12-07T06:10:46;4.10;;;1.92;;
48651;SDS011;34442;52.362;-1.302;2022-12-07T06:13:52;4.07;;;2.42;;
48651;SDS011;34442;52.362;-1.302;2022-12-07T06:16:38;5.13;;;2.20;;
48651;SDS011;34442;52.362;-1.302;2022-12-07T06:19:24;4.18;;;2.10;;
48651;SDS011;34442;52.362;-1.302;2022-12-07T06:22:12;4.53;;;2.60;;
48651;SDS011;34442;52.362;-1.302;2022-12-07T06:24:58;4.90;;;2.70;;
48651;SDS011;34442;52.362;-1.302;2022-12-07T06:27:44;3.75;;;2.05;;
48651;SDS011;34442;52.362;-1.302;2022-12-07T06:30:30;5.55;;;2.60;;
48651;SDS011;34442;52.362;-1.302;2022-12-07T06:33:16;4.75;;;2.45;;
48651;SDS011;34442;52.362;-1.302;2022-12-07T06:36:02;5.35;;;2.70;;
48651;SDS011;34442;52.362;-1.302;2022-12-07T06:38:48;4.70;;;2.28;;
48651;SDS011;34442;52.362;-1.302;2022-12-07T06:41:33;3.35;;;2.00;;
48651;SDS011;34442;52.362;-1.302;2022-12-07T06:44:21;4.63;;;2.30;;
48651;SDS011;34442;52.362;-1.302;2022-12-07T06:47:07;5.40;;;2.75;;
48651;SDS011;34442;52.362;-1.302;2022-12-07T06:49:54;4.55;;;2.40;;
48651;SDS011;34442;52.362;-1.302;2022-12-07T06:52:40;4.13;;;2.30;;
48651;SDS011;34442;52.362;-1.302;2022-12-07T06:55:26;5.85;;;2.97;;
48651;SDS011;34442;52.362;-1.302;2022-12-07T06:58:11;4.95;;;2.40;;
48651;SDS011;34442;52.362;-1.302;2022-12-07T07:00:57;4.28;;;2.00;;
48651;SDS011;34442;52.362;-1.302;2022-12-07T07:03:44;3.83;;;2.15;;
48651;SDS011;34442;52.362;-1.302;2022-12-07T07:06:30;5.38;;;2.30;;
48651;SDS011;34442;52.362;-1.302;2022-12-07T07:09:16;3.83;;;2.17;;
48651;SDS011;34442;52.362;-1.302;2022-12-07T07:12:02;3.92;;;2.17;;
48651;SDS011;34442;52.362;-1.302;2022-12-07T07:14:48;3.90;;;2.08;;
48651;SDS011;34442;52.362;-1.302;2022-12-07T07:17:34;4.35;;;2.05;;
48651;SDS011;34442;52.362;-1.302;2022-12-07T07:20:20;4.05;;;1.95;;
48651;SDS011;34442;52.362;-1.302;2022-12-07T07:23:06;3.97;;;2.35;;
48651;SDS011;34442;52.362;-1.302;2022-12-07T07:25:52;3.28;;;1.67;;
48651;SDS011;34442;52.362;-1.302;2022-12-07T07:28:38;2.83;;;1.70;;
48651;SDS011;34442;52.362;-1.302;2022-12-07T07:31:24;3.80;;;2.05;;
48651;SDS011;34442;52.362;-1.302;2022-12-07T07:34:10;4.70;;;1.90;;
48651;SDS011;34442;52.362;-1.302;2022-12-07T07:36:58;4.30;;;1.98;;
48651;SDS011;34442;52.362;-1.302;2022-12-07T07:39:45;3.20;;;1.75;;
48651;SDS011;34442;52.362;-1.302;2022-12-07T07:42:31;3.20;;;1.65;;
48651;SDS011;34442;52.362;-1.302;2022-12-07T07:45:17;3.15;;;1.80;;
48651;SDS011;34442;52.362;-1.302;2022-12-07T07:48:03;3.13;;;1.63;;
48651;SDS011;34442;52.362;-1.302;2022-12-07T07:50:49;4.25;;;1.95;;
48651;SDS011;34442;52.362;-1.302;2022-12-07T07:53:35;3.35;;;1.95;;
48651;SDS011;34442;52.362;-1.302;2022-12-07T07:56:20;3.42;;;1.83;;
48651;SDS011;34442;52.362;-1.302;2022-12-07T07:59:06;4.47;;;1.92;;
48651;SDS011;34442;52.362;-1.302;2022-12-07T08:01:52;3.83;;;1.70;;
48651;SDS011;34442;52.362;-1.302;2022-12-07T08:04:37;3.55;;;1.80;;
48651;SDS011;34442;52.362;-1.302;2022-12-07T08:07:23;3.03;;;1.73;;
48651;SDS011;34442;52.362;-1.302;2022-12-07T08:10:09;3.40;;;1.73;;
48651;SDS011;34442;52.362;-1.302;2022-12-07T08:12:56;4.45;;;1.83;;
48651;SDS011;34442;52.362;-1.302;2022-12-07T08:15:58;3.10;;;1.60;;
48651;SDS011;34442;52.362;-1.302;2022-12-07T08:18:49;4.38;;;2.38;;
48651;SDS011;34442;52.362;-1.302;2022-12-07T08:21:35;3.90;;;2.00;;
48651;SDS011;34442;52.362;-1.302;2022-12-07T08:24:21;3.90;;;1.88;;
48651;SDS011;34442;52.362;-1.302;2022-12-07T08:27:06;3.97;;;2.08;;
48651;SDS011;34442;52.362;-1.302;2022-12-07T08:29:52;4.30;;;2.10;;
48651;SDS011;34442;52.362;-1.302;2022-12-07T08:32:38;3.90;;;1.80;;
48651;SDS011;34442;52.362;-1.302;2022-12-07T08:35:24;4.35;;;1.70;;
48651;SDS011;34442;52.362;-1.302;2022-12-07T08:38:10;3.47;;;1.90;;
48651;SDS011;34442;52.362;-1.302;2022-12-07T08:40:56;3.97;;;1.85;;
48651;SDS011;34442;52.362;-1.302;2022-12-07T08:43:43;3.58;;;2.00;;
48651;SDS011;34442;52.362;-1.302;2022-12-07T08:46:36;3.90;;;1.73;;
48651;SDS011;34442;52.362;-1.302;2022-12-07T08:49:27;2.90;;;1.67;;
48651;SDS011;34442;52.362;-1.302;2022-12-07T08:52:19;2.95;;;1.50;;
48651;SDS011;34442;52.362;-1.302;2022-12-07T08:55:04;3.42;;;1.75;;
48651;SDS011;34442;52.362;-1.302;2022-12-07T08:57:51;5.75;;;2.28;;
48651;SDS011;34442;52.362;-1.302;2022-12-07T09:00:37;5.70;;;1.95;;
48651;SDS011;34442;52.362;-1.302;2022-12-07T09:03:22;2.90;;;1.60;;
48651;SDS011;34442;52.362;-1.302;2022-12-07T09:06:08;4.10;;;1.90;;
48651;SDS011;34442;52.362;-1.302;2022-12-07T09:08:55;4.18;;;2.08;;
48651;SDS011;34442;52.362;-1.302;2022-12-07T09:11:45;3.33;;;1.58;;
48651;SDS011;34442;52.362;-1.302;2022-12-07T09:14:31;3.45;;;1.65;;
48651;SDS011;34442;52.362;-1.302;2022-12-07T09:17:17;3.15;;;1.60;;
48651;SDS011;34442;52.362;-1.302;2022-12-07T09:20:03;3.72;;;1.92;;
48651;SDS011;34442;52.362;-1.302;2022-12-07T09:22:51;4.22;;;2.47;;
48651;SDS011;34442;52.362;-1.302;2022-12-07T09:25:36;6.80;;;2.13;;
48651;SDS011;34442;52.362;-1.302;2022-12-07T09:28:22;4.65;;;1.90;;
48651;SDS011;34442;52.362;-1.302;2022-12-07T09:31:08;4.60;;;2.13;;
48651;SDS011;34442;52.362;-1.302;2022-12-07T09:33:57;4.75;;;2.38;;
48651;SDS011;34442;52.362;-1.302;2022-12-07T09:36:44;5.18;;;2.83;;
48651;SDS011;34442;52.362;-1.302;2022-12-07T09:39:30;4.30;;;2.00;;
48651;SDS011;34442;52.362;-1.302;2022-12-07T09:42:34;3.88;;;2.10;;
48651;SDS011;34442;52.362;-1.302;2022-12-07T09:45:24;4.15;;;2.03;;
48651;SDS011;34442;52.362;-1.302;2022-12-07T09:48:16;4.68;;;2.63;;
48651;SDS011;34442;52.362;-1.302;2022-12-07T09:51:15;3.85;;;1.98;;
48651;SDS011;34442;52.362;-1.302;2022-12-07T09:54:01;5.63;;;2.15;;
48651;SDS011;34442;52.362;-1.302;2022-12-07T09:56:50;3.28;;;1.98;;
48651;SDS011;34442;52.362;-1.302;2022-12-07T09:59:35;2.78;;;1.60;;
48651;SDS011;34442;52.362;-1.302;2022-12-07T10:05:48;3.53;;;1.75;;
48651;SDS011;34442;52.362;-1.302;2022-12-07T10:08:36;2.83;;;1.77;;
48651;SDS011;34442;52.362;-1.302;2022-12-07T10:11:24;3.42;;;1.98;;
48651;SDS011;34442;52.362;-1.302;2022-12-07T10:14:11;3.45;;;2.03;;
48651;SDS011;34442;52.362;-1.302;2022-12-07T10:16:59;5.88;;;2.22;;
48651;SDS011;34442;52.362;-1.302;2022-12-07T10:19:45;3.63;;;2.05;;
48651;SDS011;34442;52.362;-1.302;2022-12-07T10:22:31;2.67;;;1.58;;
48651;SDS011;34442;52.362;-1.302;2022-12-07T10:25:18;3.53;;;1.67;;
48651;SDS011;34442;52.362;-1.302;2022-12-07T10:28:11;3.42;;;1.88;;
48651;SDS011;34442;52.362;-1.302;2022-12-07T10:30:58;3.70;;;1.70;;
48651;SDS011;34442;52.362;-1.302;2022-12-07T10:33:57;4.45;;;2.33;;
48651;SDS011;34442;52.362;-1.302;2022-12-07T10:36:44;3.60;;;1.88;;
48651;SDS011;34442;52.362;-1.302;2022-12-07T10:39:30;3.55;;;1.88;;
48651;SDS011;34442;52.362;-1.302;2022-12-07T10:42:28;4.20;;;2.05;;
48651;SDS011;34442;52.362;-1.302;2022-12-07T10:45:15;3.47;;;1.85;;
48651;SDS011;34442;52.362;-1.302;2022-12-07T10:51:09;5.07;;;1.85;;
48651;SDS011;34442;52.362;-1.302;2022-12-07T10:59:52;4.55;;;2.00;;
48651;SDS011;34442;52.362;-1.302;2022-12-07T11:12:11;4.25;;;2.22;;
48651;SDS011;34442;52.362;-1.302;2022-12-07T11:23:57;3.42;;;1.80;;
48651;SDS011;34442;52.362;-1.302;2022-12-07T11:27:06;3.47;;;1.95;;
48651;SDS011;34442;52.362;-1.302;2022-12-07T11:30:08;4.05;;;2.05;;
48651;SDS011;34442;52.362;-1.302;2022-12-07T11:33:19;3.55;;;1.63;;
48651;SDS011;34442;52.362;-1.302;2022-12-07T11:42:13;3.70;;;1.73;;
48651;SDS011;34442;52.362;-1.302;2022-12-07T11:45:13;3.90;;;1.98;;
48651;SDS011;34442;52.362;-1.302;2022-12-07T11:48:15;4.53;;;2.40;;
48651;SDS011;34442;52.362;-1.302;2022-12-07T11:51:06;3.80;;;1.80;;
48651;SDS011;34442;52.362;-1.302;2022-12-07T11:53:57;3.55;;;1.95;;
48651;SDS011;34442;52.362;-1.302;2022-12-07T11:56:48;3.38;;;1.60;;
48651;SDS011;34442;52.362;-1.302;2022-12-07T11:59:38;5.75;;;2.15;;
48651;SDS011;34442;52.362;-1.302;2022-12-07T12:02:33;3.17;;;1.92;;
48651;SDS011;34442;52.362;-1.302;2022-12-07T12:05:29;6.07;;;2.25;;
48651;SDS011;34442;52.362;-1.302;2022-12-07T12:08:20;6.00;;;2.33;;
48651;SDS011;34442;52.362;-1.302;2022-12-07T12:20:44;3.83;;;1.88;;
48651;SDS011;34442;52.362;-1.302;2022-12-07T12:23:40;3.53;;;1.80;;
48651;SDS011;34442;52.362;-1.302;2022-12-07T12:26:31;4.40;;;2.20;;
48651;SDS011;34442;52.362;-1.302;2022-12-07T12:29:37;3.75;;;1.90;;
48651;SDS011;34442;52.362;-1.302;2022-12-07T12:35:21;2.33;;;1.63;;
48651;SDS011;34442;52.362;-1.302;2022-12-07T12:38:27;3.10;;;1.88;;
48651;SDS011;34442;52.362;-1.302;2022-12-07T12:56:32;3.20;;;1.65;;
48651;SDS011;34442;52.362;-1.302;2022-12-07T13:08:01;3.67;;;1.88;;
48651;SDS011;34442;52.362;-1.302;2022-12-07T13:10:56;3.50;;;1.70;;
48651;SDS011;34442;52.362;-1.302;2022-12-07T13:23:36;3.35;;;1.83;;
48651;SDS011;34442;52.362;-1.302;2022-12-07T13:29:19;4.47;;;1.70;;
48651;SDS011;34442;52.362;-1.302;2022-12-07T13:32:17;3.20;;;1.60;;
48651;SDS011;34442;52.362;-1.302;2022-12-07T13:38:27;3.03;;;1.55;;
48651;SDS011;34442;52.362;-1.302;2022-12-07T13:41:17;3.70;;;1.60;;
48651;SDS011;34442;52.362;-1.302;2022-12-07T13:53:11;6.97;;;2.45;;
48651;SDS011;34442;52.362;-1.302;2022-12-07T13:55:59;3.72;;;2.03;;
48651;SDS011;34442;52.362;-1.302;2022-12-07T13:58:46;4.07;;;2.08;;
48651;SDS011;34442;52.362;-1.302;2022-12-07T14:01:32;2.92;;;1.60;;
48651;SDS011;34442;52.362;-1.302;2022-12-07T14:07:21;3.55;;;1.90;;
48651;SDS011;34442;52.362;-1.302;2022-12-07T14:10:23;6.15;;;2.33;;
48651;SDS011;34442;52.362;-1.302;2022-12-07T14:13:33;4.32;;;2.25;;
48651;SDS011;34442;52.362;-1.302;2022-12-07T14:16:31;4.50;;;2.25;;
48651;SDS011;34442;52.362;-1.302;2022-12-07T14:25:21;4.32;;;2.13;;
48651;SDS011;34442;52.362;-1.302;2022-12-07T14:28:28;3.92;;;1.83;;
48651;SDS011;34442;52.362;-1.302;2022-12-07T14:31:20;3.30;;;1.73;;
48651;SDS011;34442;52.362;-1.302;2022-12-07T14:34:13;4.22;;;1.90;;
48651;SDS011;34442;52.362;-1.302;2022-12-07T14:36:59;4.05;;;2.10;;
48651;SDS011;34442;52.362;-1.302;2022-12-07T14:39:45;3.72;;;1.88;;
48651;SDS011;34442;52.362;-1.302;2022-12-07T14:42:31;4.18;;;1.83;;
48651;SDS011;34442;52.362;-1.302;2022-12-07T14:45:21;4.32;;;1.50;;
48651;SDS011;34442;52.362;-1.302;2022-12-07T14:48:12;2.67;;;1.55;;
48651;SDS011;34442;52.362;-1.302;2022-12-07T14:50:59;3.40;;;1.40;;
48651;SDS011;34442;52.362;-1.302;2022-12-07T14:53:50;3.28;;;1.42;;
48651;SDS011;34442;52.362;-1.302;2022-12-07T14:56:38;2.65;;;1.38;;
48651;SDS011;34442;52.362;-1.302;2022-12-07T14:59:24;2.65;;;1.42;;
48651;SDS011;34442;52.362;-1.302;2022-12-07T15:02:10;4.25;;;1.77;;
48651;SDS011;34442;52.362;-1.302;2022-12-07T15:04:58;2.90;;;1.40;;
48651;SDS011;34442;52.362;-1.302;2022-12-07T15:07:43;2.92;;;1.27;;
48651;SDS011;34442;52.362;-1.302;2022-12-07T15:10:32;3.10;;;1.50;;
48651;SDS011;34442;52.362;-1.302;2022-12-07T15:13:19;2.58;;;1.42;;
48651;SDS011;34442;52.362;-1.302;2022-12-07T15:16:23;3.28;;;1.75;;
48651;SDS011;34442;52.362;-1.302;2022-12-07T15:19:16;4.03;;;1.92;;
48651;SDS011;34442;52.362;-1.302;2022-12-07T15:22:04;2.78;;;1.50;;
48651;SDS011;34442;52.362;-1.302;2022-12-07T15:24:50;3.30;;;1.50;;
48651;SDS011;34442;52.362;-1.302;2022-12-07T15:27:35;3.42;;;1.55;;
48651;SDS011;34442;52.362;-1.302;2022-12-07T15:30:21;4.13;;;1.63;;
48651;SDS011;34442;52.362;-1.302;2022-12-07T15:33:07;5.25;;;1.75;;
48651;SDS011;34442;52.362;-1.302;2022-12-07T15:35:52;3.38;;;1.80;;
48651;SDS011;34442;52.362;-1.302;2022-12-07T15:38:38;2.47;;;1.40;;
48651;SDS011;34442;52.362;-1.302;2022-12-07T15:41:24;3.38;;;1.80;;
48651;SDS011;34442;52.362;-1.302;2022-12-07T15:44:13;3.17;;;1.73;;
48651;SDS011;34442;52.362;-1.302;2022-12-07T15:47:18;3.03;;;1.73;;
48651;SDS011;34442;52.362;-1.302;2022-12-07T15:50:04;2.75;;;1.50;;
48651;SDS011;34442;52.362;-1.302;2022-12-07T15:52:52;3.13;;;1.90;;
48651;SDS011;34442;52.362;-1.302;2022-12-07T15:55:38;3.38;;;1.85;;
48651;SDS011;34442;52.362;-1.302;2022-12-07T15:58:25;2.58;;;1.52;;
48651;SDS011;34442;52.362;-1.302;2022-12-07T16:01:12;1.83;;;1.25;;
48651;SDS011;34442;52.362;-1.302;2022-12-07T16:03:58;2.42;;;1.50;;
48651;SDS011;34442;52.362;-1.302;2022-12-07T16:06:44;3.08;;;1.30;;
48651;SDS011;34442;52.362;-1.302;2022-12-07T16:09:30;3.65;;;1.33;;
48651;SDS011;34442;52.362;-1.302;2022-12-07T16:12:16;3.72;;;1.40;;
48651;SDS011;34442;52.362;-1.302;2022-12-07T16:15:02;3.33;;;1.40;;
48651;SDS011;34442;52.362;-1.302;2022-12-07T16:17:47;3.30;;;1.38;;
48651;SDS011;34442;52.362;-1.302;2022-12-07T16:20:33;3.03;;;1.42;;
48651;SDS011;34442;52.362;-1.302;2022-12-07T16:23:19;2.67;;;1.50;;
48651;SDS011;34442;52.362;-1.302;2022-12-07T16:28:56;2.15;;;1.20;;
48651;SDS011;34442;52.362;-1.302;2022-12-07T16:31:43;2.47;;;1.10;;
48651;SDS011;34442;52.362;-1.302;2022-12-07T16:34:29;2.55;;;1.30;;
48651;SDS011;34442;52.362;-1.302;2022-12-07T16:37:15;2.25;;;1.30;;
48651;SDS011;34442;52.362;-1.302;2022-12-07T16:40:01;2.25;;;1.48;;
48651;SDS011;34442;52.362;-1.302;2022-12-07T16:42:47;3.25;;;1.45;;
48651;SDS011;34442;52.362;-1.302;2022-12-07T16:45:32;3.22;;;1.30;;
48651;SDS011;34442;52.362;-1.302;2022-12-07T16:48:18;2.17;;;1.25;;
48651;SDS011;34442;52.362;-1.302;2022-12-07T16:51:05;2.47;;;1.42;;
48651;SDS011;34442;52.362;-1.302;2022-12-07T16:53:52;3.58;;;1.77;;
48651;SDS011;34442;52.362;-1.302;2022-12-07T16:56:38;4.43;;;2.10;;
48651;SDS011;34442;52.362;-1.302;2022-12-07T16:59:24;2.83;;;1.73;;
48651;SDS011;34442;52.362;-1.302;2022-12-07T17:02:11;5.07;;;2.65;;
48651;SDS011;34442;52.362;-1.302;2022-12-07T17:04:57;4.15;;;2.50;;
48651;SDS011;34442;52.362;-1.302;2022-12-07T17:07:43;4.10;;;1.60;;
48651;SDS011;34442;52.362;-1.302;2022-12-07T17:10:32;2.47;;;1.45;;
48651;SDS011;34442;52.362;-1.302;2022-12-07T17:13:20;2.00;;;1.25;;
48651;SDS011;34442;52.362;-1.302;2022-12-07T17:16:24;2.78;;;1.55;;
48651;SDS011;34442;52.362;-1.302;2022-12-07T17:19:11;3.05;;;1.35;;
48651;SDS011;34442;52.362;-1.302;2022-12-07T17:21:58;4.22;;;1.50;;
48651;SDS011;34442;52.362;-1.302;2022-12-07T17:24:44;3.65;;;1.50;;
48651;SDS011;34442;52.362;-1.302;2022-12-07T17:27:31;4.63;;;1.40;;
48651;SDS011;34442;52.362;-1.302;2022-12-07T17:30:17;3.53;;;1.58;;
48651;SDS011;34442;52.362;-1.302;2022-12-07T17:33:02;3.58;;;2.05;;
48651;SDS011;34442;52.362;-1.302;2022-12-07T17:35:48;2.72;;;1.63;;
48651;SDS011;34442;52.362;-1.302;2022-12-07T17:38:34;5.47;;;2.10;;
48651;SDS011;34442;52.362;-1.302;2022-12-07T17:41:21;3.50;;;1.60;;
48651;SDS011;34442;52.362;-1.302;2022-12-07T17:44:29;3.60;;;1.52;;
48651;SDS011;34442;52.362;-1.302;2022-12-07T17:47:16;3.13;;;1.38;;
48651;SDS011;34442;52.362;-1.302;2022-12-07T17:50:04;3.53;;;1.70;;
48651;SDS011;34442;52.362;-1.302;2022-12-07T17:52:50;3.42;;;1.40;;
48651;SDS011;34442;52.362;-1.302;2022-12-07T17:55:55;2.63;;;1.52;;
48651;SDS011;34442;52.362;-1.302;2022-12-07T17:58:41;2.97;;;1.73;;
48651;SDS011;34442;52.362;-1.302;2022-12-07T18:01:27;4.28;;;1.60;;
48651;SDS011;34442;52.362;-1.302;2022-12-07T18:04:12;3.00;;;1.27;;
48651;SDS011;34442;52.362;-1.302;2022-12-07T18:06:58;1.83;;;1.13;;
48651;SDS011;34442;52.362;-1.302;2022-12-07T18:09:44;2.45;;;1.10;;
48651;SDS011;34442;52.362;-1.302;2022-12-07T18:12:30;2.85;;;1.20;;
48651;SDS011;34442;52.362;-1.302;2022-12-07T18:15:15;1.75;;;1.10;;
48651;SDS011;34442;52.362;-1.302;2022-12-07T18:18:01;3.17;;;1.63;;
48651;SDS011;34442;52.362;-1.302;2022-12-07T18:20:47;2.25;;;1.23;;
48651;SDS011;34442;52.362;-1.302;2022-12-07T18:23:33;1.45;;;1.08;;
48651;SDS011;34442;52.362;-1.302;2022-12-07T18:26:19;1.85;;;1.23;;
48651;SDS011;34442;52.362;-1.302;2022-12-07T18:29:07;2.10;;;1.25;;
48651;SDS011;34442;52.362;-1.302;2022-12-07T18:31:54;3.58;;;1.60;;
48651;SDS011;34442;52.362;-1.302;2022-12-07T18:34:43;1.90;;;1.10;;
48651;SDS011;34442;52.362;-1.302;2022-12-07T18:37:29;2.58;;;1.40;;
48651;SDS011;34442;52.362;-1.302;2022-12-07T18:40:15;2.25;;;1.65;;
48651;SDS011;34442;52.362;-1.302;2022-12-07T18:43:01;4.57;;;2.25;;
48651;SDS011;34442;52.362;-1.302;2022-12-07T18:45:47;2.67;;;1.30;;
48651;SDS011;34442;52.362;-1.302;2022-12-07T18:48:33;2.65;;;1.40;;
48651;SDS011;34442;52.362;-1.302;2022-12-07T18:51:19;4.07;;;1.90;;
48651;SDS011;34442;52.362;-1.302;2022-12-07T18:54:04;3.75;;;1.75;;
48651;SDS011;34442;52.362;-1.302;2022-12-07T18:56:51;3.60;;;1.38;;
48651;SDS011;34442;52.362;-1.302;2022-12-07T18:59:39;3.63;;;2.00;;
48651;SDS011;34442;52.362;-1.302;2022-12-07T19:02:31;4.00;;;1.70;;